| time (UTC) | temp C | wind direction | speed KPH | gust KPH | rain 1hr cm | rain 24hr cm | rain mn cm | humidity % | barometer mb |
| 20260507055009 | 4 | 0 | 0.0 | 0.0 | 0.10 | 0.30 | 0.30 | 92 | 1015.2 |
| 20260507054528 | 4 | 0 | 0.0 | 0.0 | 0.10 | 0.30 | 0.30 | 92 | 1015.1 |
| 20260507054012 | 4 | 0 | 0.0 | 0.0 | 0.08 | 0.28 | 0.28 | 91 | 1015.3 |
| 20260507053510 | 5 | 0 | 0.0 | 1.6 | 0.08 | 0.28 | 0.28 | 91 | 1015.3 |
| 20260507053028 | 5 | 159 | 0.0 | 1.6 | 0.08 | 0.28 | 0.28 | 91 | 1015.2 |
| 20260507052511 | 5 | 152 | 0.0 | 3.2 | 0.08 | 0.28 | 0.28 | 90 | 1015.3 |
| 20260507052010 | 5 | 0 | 0.0 | 3.2 | 0.05 | 0.25 | 0.25 | 90 | 1015.3 |
| 20260507051529 | 5 | 253 | 0.0 | 6.4 | 0.05 | 0.25 | 0.25 | 90 | 1015.2 |
| 20260507051010 | 5 | 267 | 1.6 | 9.7 | 0.05 | 0.25 | 0.25 | 89 | 1015.2 |
| 20260507050511 | 5 | 223 | 1.6 | 9.7 | 0.03 | 0.23 | 0.23 | 90 | 1015.2 |
| 20260507050029 | 5 | 269 | 0.0 | 1.6 | 0.05 | 0.23 | 0.23 | 91 | 1015.2 |
| 20260507045510 | 5 | 206 | 0.0 | 1.6 | 0.03 | 0.20 | 0.20 | 91 | 1015.1 |
| 20260507045009 | 5 | 0 | 0.0 | 1.6 | 0.03 | 0.20 | 0.20 | 92 | 1015.0 |
| 20260507044530 | 5 | 0 | 0.0 | 0.0 | 0.03 | 0.20 | 0.20 | 92 | 1015.0 |
| 20260507044009 | 5 | 0 | 0.0 | 0.0 | 0.03 | 0.20 | 0.20 | 91 | 1015.0 |
| 20260507043509 | 5 | 0 | 0.0 | 0.0 | 0.05 | 0.20 | 0.20 | 91 | 1014.9 |
| 20260507043035 | 5 | 0 | 0.0 | 0.0 | 0.05 | 0.20 | 0.20 | 91 | 1014.9 |
| 20260507042510 | 5 | 0 | 0.0 | 0.0 | 0.05 | 0.20 | 0.20 | 91 | 1014.8 |
| 20260507042012 | 5 | 0 | 0.0 | 0.0 | 0.05 | 0.20 | 0.20 | 91 | 1014.8 |
| 20260507041528 | 5 | 0 | 0.0 | 0.0 | 0.05 | 0.20 | 0.20 | 90 | 1014.7 |
| 20260507041010 | 5 | 0 | 0.0 | 1.6 | 0.05 | 0.20 | 0.20 | 90 | 1014.7 |
| 20260507040510 | 6 | 0 | 0.0 | 1.6 | 0.03 | 0.18 | 0.18 | 89 | 1014.7 |
| 20260507040029 | 6 | 0 | 0.0 | 1.6 | 0.05 | 0.18 | 0.18 | 88 | 1014.6 |
| 20260507035507 | 6 | 0 | 0.0 | 1.6 | 0.05 | 0.18 | 0.18 | 86 | 1014.5 |
| 20260507035011 | 6 | 0 | 0.0 | 1.6 | 0.05 | 0.18 | 0.18 | 84 | 1014.6 |
| 20260507034530 | 6 | 0 | 0.0 | 1.6 | 0.05 | 0.18 | 0.18 | 84 | 1014.5 |
| 20260507034012 | 6 | 0 | 0.0 | 1.6 | 0.05 | 0.18 | 0.18 | 84 | 1014.6 |
| 20260507033510 | 6 | 0 | 0.0 | 1.6 | 0.03 | 0.15 | 0.15 | 84 | 1014.4 |
| 20260507033029 | 6 | 157 | 0.0 | 1.6 | 0.03 | 0.15 | 0.15 | 83 | 1014.5 |
| 20260507032510 | 6 | 157 | 0.0 | 1.6 | 0.03 | 0.15 | 0.15 | 83 | 1014.5 |
| 20260507032012 | 6 | 0 | 0.0 | 4.8 | 0.03 | 0.15 | 0.15 | 82 | 1014.4 |
| 20260507031528 | 6 | 179 | 1.6 | 4.8 | 0.03 | 0.15 | 0.15 | 81 | 1014.4 |
| 20260507031008 | 6 | 248 | 0.0 | 3.2 | 0.03 | 0.15 | 0.15 | 82 | 1014.3 |
| 20260507030512 | 6 | 288 | 0.0 | 3.2 | 0.03 | 0.15 | 0.15 | 84 | 1014.3 |
| 20260507030032 | 6 | 0 | 0.0 | 3.2 | 0.00 | 0.13 | 0.13 | 88 | 1014.3 |
| 20260507025509 | 6 | 144 | 1.6 | 3.2 | 0.00 | 0.13 | 0.13 | 86 | 1014.2 |
| 20260507025009 | 6 | 0 | 0.0 | 1.6 | 0.00 | 0.13 | 0.13 | 86 | 1014.3 |
| 20260507024528 | 6 | 0 | 0.0 | 1.6 | 0.00 | 0.13 | 0.13 | 86 | 1014.2 |
| 20260507024008 | 6 | 0 | 0.0 | 1.6 | 0.00 | 0.13 | 0.13 | 85 | 1014.2 |
| 20260507023512 | 6 | 0 | 0.0 | 0.0 | 0.00 | 0.13 | 0.13 | 86 | 1014.1 |
| 20260507023030 | 6 | 0 | 0.0 | 0.0 | 0.00 | 0.13 | 0.13 | 85 | 1014.1 |
| 20260507022509 | 6 | 0 | 0.0 | 0.0 | 0.00 | 0.13 | 0.13 | 84 | 1014.0 |
| 20260507022009 | 7 | 0 | 0.0 | 0.0 | 0.03 | 0.13 | 0.13 | 85 | 1014.0 |
| 20260507021530 | 7 | 0 | 0.0 | 0.0 | 0.03 | 0.13 | 0.13 | 83 | 1013.8 |
| 20260507021012 | 7 | 0 | 0.0 | 0.0 | 0.03 | 0.13 | 0.13 | 83 | 1013.9 |
| 20260507020510 | 7 | 0 | 0.0 | 1.6 | 0.03 | 0.13 | 0.13 | 81 | 1014.0 |
| 20260507020033 | 7 | 0 | 0.0 | 1.6 | 0.03 | 0.13 | 0.13 | 82 | 1013.9 |
| 20260507015509 | 7 | 0 | 0.0 | 1.6 | 0.03 | 0.13 | 0.13 | 82 | 1013.9 |
| 20260507015013 | 7 | 0 | 0.0 | 1.6 | 0.03 | 0.13 | 0.13 | 82 | 1013.9 |
| 20260507014528 | 7 | 0 | 0.0 | 6.4 | 0.03 | 0.13 | 0.13 | 82 | 1013.8 |
| 20260507014009 | 7 | 278 | 0.0 | 6.4 | 0.03 | 0.13 | 0.13 | 80 | 1013.8 |
| 20260507013506 | 7 | 244 | 1.6 | 4.8 | 0.03 | 0.13 | 0.13 | 78 | 1013.8 |
| 20260507013036 | 7 | 238 | 0.0 | 3.2 | 0.03 | 0.13 | 0.13 | 80 | 1013.8 |
| 20260507012513 | 7 | 278 | 1.6 | 4.8 | 0.03 | 0.13 | 0.13 | 80 | 1013.7 |
| 20260507012014 | 7 | 291 | 1.6 | 4.8 | 0.00 | 0.10 | 0.10 | 79 | 1013.8 |
| 20260507011536 | 7 | 287 | 1.6 | 3.2 | 0.00 | 0.10 | 0.10 | 79 | 1013.8 |
| 20260507011009 | 7 | 0 | 1.6 | 6.4 | 0.00 | 0.10 | 0.10 | 79 | 1013.7 |
| 20260507010509 | 7 | 277 | 1.6 | 9.7 | 0.00 | 0.10 | 0.10 | 77 | 1013.7 |
| 20260507010029 | 7 | 260 | 3.2 | 9.7 | 0.00 | 0.10 | 0.10 | 76 | 1013.6 |
| 20260507005515 | 7 | 246 | 1.6 | 9.7 | 0.00 | 0.10 | 0.10 | 73 | 1013.6 |
| 20260507005009 | 7 | 215 | 3.2 | 9.7 | 0.00 | 0.10 | 0.10 | 72 | 1013.5 |
| 20260507004528 | 7 | 265 | 1.6 | 8.0 | 0.00 | 0.10 | 0.10 | 73 | 1013.4 |
| 20260507004010 | 7 | 276 | 0.0 | 3.2 | 0.00 | 0.10 | 0.10 | 76 | 1013.4 |
| 20260507003511 | 7 | 0 | 0.0 | 4.8 | 0.00 | 0.10 | 0.10 | 76 | 1013.4 |
| 20260507003029 | 7 | 290 | 1.6 | 4.8 | 0.00 | 0.10 | 0.10 | 74 | 1013.4 |
| 20260507002507 | 7 | 261 | 1.6 | 4.8 | 0.00 | 0.10 | 0.10 | 76 | 1013.4 |
| 20260507002011 | 7 | 277 | 0.0 | 6.4 | 0.00 | 0.10 | 0.10 | 78 | 1013.4 |
| 20260507001533 | 7 | 290 | 1.6 | 6.4 | 0.00 | 0.10 | 0.10 | 78 | 1013.4 |
| 20260507001009 | 7 | 271 | 1.6 | 6.4 | 0.00 | 0.10 | 0.10 | 78 | 1013.3 |
| 20260507000514 | 7 | 263 | 1.6 | 6.4 | 0.00 | 0.10 | 0.10 | 78 | 1013.2 |
| 20260507000030 | 7 | 202 | 1.6 | 6.4 | 0.00 | 0.10 | 0.10 | 81 | 1013.3 |
| 20260506235508 | 7 | 319 | 0.0 | 1.6 | 0.00 | 0.10 | 0.10 | 84 | 1013.2 |
| 20260506235006 | 7 | 0 | 0.0 | 1.6 | 0.00 | 0.10 | 0.10 | 86 | 1013.1 |
| 20260506234536 | 7 | 282 | 0.0 | 1.6 | 0.00 | 0.10 | 0.10 | 84 | 1013.2 |
| 20260506234010 | 7 | 0 | 0.0 | 9.7 | 0.00 | 0.10 | 0.10 | 86 | 1013.1 |
| 20260506233507 | 7 | 0 | 0.0 | 9.7 | 0.00 | 0.10 | 0.10 | 84 | 1013.1 |
| 20260506233029 | 6 | 133 | 1.6 | 8.0 | 0.00 | 0.10 | 0.10 | 83 | 1013.0 |
| 20260506232510 | 6 | 80 | 0.0 | 1.6 | 0.03 | 0.10 | 0.10 | 86 | 1013.1 |
| 20260506232013 | 6 | 0 | 0.0 | 3.2 | 0.03 | 0.10 | 0.10 | 89 | 1013.1 |
| 20260506231533 | 6 | 68 | 0.0 | 3.2 | 0.05 | 0.10 | 0.10 | 88 | 1012.9 |
| 20260506231014 | 6 | 50 | 0.0 | 1.6 | 0.08 | 0.10 | 0.10 | 89 | 1013.1 |
| 20260506230509 | 6 | 51 | 0.0 | 1.6 | 0.08 | 0.10 | 0.10 | 88 | 1013.0 |
| 20260506230026 | 6 | 0 | 0.0 | 0.0 | 0.08 | 0.10 | 0.10 | 90 | 1013.0 |
| 20260506225511 | 6 | 0 | 0.0 | 1.6 | 0.08 | 0.10 | 0.10 | 90 | 1012.9 |
| 20260506225010 | 6 | 0 | 0.0 | 1.6 | 0.08 | 0.10 | 0.10 | 89 | 1012.9 |
| 20260506224530 | 6 | 293 | 0.0 | 1.6 | 0.08 | 0.10 | 0.10 | 89 | 1012.9 |
| 20260506224009 | 6 | 0 | 0.0 | 1.6 | 0.08 | 0.10 | 0.10 | 88 | 1012.9 |
| 20260506223508 | 6 | 0 | 0.0 | 1.6 | 0.08 | 0.10 | 0.10 | 88 | 1012.9 |
| 20260506223031 | 6 | 0 | 0.0 | 1.6 | 0.08 | 0.10 | 0.10 | 87 | 1013.0 |
| 20260506222507 | 6 | 286 | 0.0 | 1.6 | 0.05 | 0.08 | 0.08 | 85 | 1012.8 |
| 20260506222010 | 6 | 0 | 0.0 | 4.8 | 0.05 | 0.08 | 0.08 | 85 | 1013.0 |
| 20260506221529 | 7 | 249 | 1.6 | 9.7 | 0.03 | 0.05 | 0.05 | 81 | 1012.9 |
| 20260506221011 | 7 | 274 | 3.2 | 9.7 | 0.00 | 0.03 | 0.03 | 76 | 1012.8 |
| 20260506220509 | 8 | 284 | 1.6 | 6.4 | 0.00 | 0.03 | 0.03 | 73 | 1012.8 |
| 20260506220030 | 8 | 270 | 1.6 | 4.8 | 0.00 | 0.03 | 0.03 | 71 | 1012.5 |
| 20260506215508 | 8 | 258 | 1.6 | 6.4 | 0.00 | 0.03 | 0.03 | 70 | 1012.7 |
| 20260506215010 | 8 | 175 | 3.2 | 6.4 | 0.00 | 0.03 | 0.03 | 70 | 1012.5 |
| 20260506214529 | 8 | 245 | 3.2 | 6.4 | 0.00 | 0.03 | 0.03 | 70 | 1012.5 |
| 20260506214011 | 8 | 294 | 3.2 | 9.7 | 0.00 | 0.03 | 0.03 | 73 | 1012.5 |
| 20260506213511 | 8 | 285 | 3.2 | 9.7 | 0.00 | 0.03 | 0.03 | 73 | 1012.6 |
| 20260506213028 | 8 | 273 | 3.2 | 14.5 | 0.00 | 0.03 | 0.03 | 73 | 1012.5 |
| 20260506212510 | 8 | 250 | 3.2 | 14.5 | 0.00 | 0.03 | 0.03 | 71 | 1012.4 |
| 20260506212011 | 8 | 157 | 1.6 | 4.8 | 0.00 | 0.03 | 0.03 | 68 | 1012.4 |
| 20260506211529 | 8 | 285 | 0.0 | 9.7 | 0.00 | 0.03 | 0.03 | 67 | 1012.4 |
| 20260506211009 | 8 | 253 | 1.6 | 9.7 | 0.00 | 0.03 | 0.03 | 69 | 1012.3 |
| 20260506210510 | 8 | 168 | 1.6 | 8.0 | 0.00 | 0.03 | 0.03 | 70 | 1012.3 |
| 20260506210027 | 8 | 253 | 3.2 | 11.3 | 0.00 | 0.03 | 0.03 | 69 | 1012.1 |
| 20260506205509 | 8 | 245 | 3.2 | 11.3 | 0.00 | 0.03 | 0.03 | 70 | 1012.3 |
| 20260506205009 | 8 | 263 | 3.2 | 11.3 | 0.00 | 0.03 | 0.03 | 69 | 1012.2 |
| 20260506204533 | 8 | 225 | 1.6 | 6.4 | 0.00 | 0.03 | 0.03 | 67 | 1012.2 |
| 20260506204011 | 8 | 265 | 1.6 | 4.8 | 0.00 | 0.03 | 0.03 | 68 | 1012.1 |
| 20260506203508 | 8 | 150 | 0.0 | 3.2 | 0.00 | 0.03 | 0.03 | 69 | 1012.2 |
| 20260506203043 | 7 | 277 | 1.6 | 4.8 | 0.00 | 0.03 | 0.03 | 69 | 1012.3 |
| 20260506202509 | 7 | 0 | 1.6 | 4.8 | 0.00 | 0.03 | 0.03 | 71 | 1012.0 |
| 20260506202011 | 7 | 273 | 1.6 | 3.2 | 0.00 | 0.03 | 0.03 | 71 | 1012.0 |
| 20260506201609 | 7 | 255 | 0.0 | 3.2 | 0.00 | 0.03 | 0.03 | 73 | 1012.0 |
| 20260506201010 | 7 | 279 | 0.0 | 3.2 | 0.00 | 0.03 | 0.03 | 74 | 1011.9 |
| 20260506200510 | 7 | 0 | 0.0 | 3.2 | 0.00 | 0.03 | 0.03 | 78 | 1011.9 |
| 20260506200031 | 7 | 291 | 0.0 | 3.2 | 0.00 | 0.03 | 0.03 | 75 | 1011.8 |
| 20260506195510 | 7 | 294 | 1.6 | 3.2 | 0.00 | 0.03 | 0.03 | 76 | 1011.9 |
| 20260506195010 | 7 | 55 | 1.6 | 3.2 | 0.00 | 0.03 | 0.03 | 75 | 1011.9 |
| 20260506194527 | 7 | 338 | 0.0 | 3.2 | 0.00 | 0.03 | 0.03 | 75 | 1011.9 |
| 20260506194012 | 7 | 285 | 0.0 | 3.2 | 0.00 | 0.03 | 0.03 | 78 | 1011.9 |
| 20260506193508 | 7 | 280 | 0.0 | 3.2 | 0.00 | 0.03 | 0.03 | 77 | 1011.9 |
| 20260506193028 | 6 | 0 | 0.0 | 3.2 | 0.03 | 0.03 | 0.03 | 77 | 1011.8 |
| 20260506192507 | 6 | 0 | 0.0 | 3.2 | 0.03 | 0.03 | 0.03 | 78 | 1011.8 |
| 20260506192009 | 6 | 267 | 1.6 | 3.2 | 0.03 | 0.03 | 0.03 | 76 | 1011.8 |
| 20260506191530 | 6 | 198 | 0.0 | 3.2 | 0.03 | 0.03 | 0.03 | 78 | 1011.7 |
| 20260506191010 | 6 | 97 | 0.0 | 3.2 | 0.03 | 0.03 | 0.03 | 79 | 1011.8 |
| 20260506190511 | 6 | 148 | 0.0 | 3.2 | 0.03 | 0.03 | 0.03 | 80 | 1011.8 |
| 20260506190036 | 6 | 235 | 0.0 | 1.6 | 0.03 | 0.03 | 0.03 | 80 | 1011.8 |
| 20260506185510 | 6 | 0 | 0.0 | 1.6 | 0.03 | 0.03 | 0.03 | 81 | 1011.8 |
| 20260506185009 | 6 | 0 | 0.0 | 1.6 | 0.03 | 0.03 | 0.03 | 81 | 1011.8 |
| 20260506184527 | 6 | 270 | 0.0 | 1.6 | 0.03 | 0.03 | 0.03 | 83 | 1011.8 |
| 20260506184011 | 6 | 264 | 0.0 | 1.6 | 0.03 | 0.03 | 0.03 | 83 | 1011.7 |
| 20260506183510 | 6 | 0 | 0.0 | 0.0 | 0.03 | 0.03 | 0.03 | 82 | 1011.8 |
| 20260506183028 | 6 | 0 | 0.0 | 0.0 | 0.00 | 0.00 | 0.00 | 84 | 1011.8 |
| 20260506182507 | 6 | 0 | 0.0 | 0.0 | 0.00 | 0.00 | 0.00 | 85 | 1011.8 |
| 20260506182014 | 5 | 0 | 0.0 | 1.6 | 0.00 | 0.00 | 0.00 | 84 | 1011.7 |
| 20260506181528 | 5 | 0 | 0.0 | 1.6 | 0.00 | 0.00 | 0.00 | 82 | 1011.7 |
| 20260506181008 | 5 | 280 | 0.0 | 1.6 | 0.00 | 0.00 | 0.00 | 81 | 1011.7 |
| 20260506180510 | 5 | 280 | 0.0 | 1.6 | 0.00 | 0.00 | 0.00 | 81 | 1011.6 |
| 20260506180028 | 5 | 0 | 0.0 | 1.6 | 0.00 | 0.00 | 0.00 | 80 | 1011.7 |
| 20260506175511 | 6 | 265 | 0.0 | 1.6 | 0.00 | 0.00 | 0.00 | 81 | 1011.5 |
| 20260506175011 | 6 | 0 | 0.0 | 1.6 | 0.00 | 0.00 | 0.00 | 82 | 1011.5 |
| 20260506174528 | 5 | 0 | 0.0 | 1.6 | 0.00 | 0.00 | 0.00 | 81 | 1011.6 |
| 20260506174013 | 5 | 0 | 0.0 | 1.6 | 0.00 | 0.00 | 0.00 | 82 | 1011.5 |
| 20260506173508 | 5 | 0 | 0.0 | 1.6 | 0.00 | 0.00 | 0.00 | 81 | 1011.6 |
| 20260506173032 | 5 | 20 | 0.0 | 1.6 | 0.00 | 0.00 | 0.00 | 82 | 1011.5 |
| 20260506172511 | 5 | 0 | 0.0 | 1.6 | 0.00 | 0.00 | 0.00 | 82 | 1011.4 |
| 20260506172010 | 5 | 0 | 0.0 | 1.6 | 0.00 | 0.00 | 0.00 | 83 | 1011.3 |
| 20260506171527 | 5 | 20 | 0.0 | 1.6 | 0.00 | 0.00 | 0.00 | 84 | 1011.4 |
| 20260506171010 | 5 | 0 | 0.0 | 1.6 | 0.00 | 0.00 | 0.00 | 84 | 1011.4 |
| 20260506170513 | 5 | 0 | 0.0 | 1.6 | 0.00 | 0.00 | 0.00 | 85 | 1011.4 |
| 20260506170028 | 5 | 0 | 0.0 | 1.6 | 0.00 | 0.00 | 0.00 | 84 | 1011.4 |
| 20260506165510 | 5 | 0 | 0.0 | 1.6 | 0.00 | 0.00 | 0.00 | 85 | 1011.4 |
| 20260506165010 | 5 | 0 | 0.0 | 1.6 | 0.00 | 0.00 | 0.00 | 86 | 1011.3 |
| 20260506164530 | 5 | 0 | 0.0 | 0.0 | 0.00 | 0.00 | 0.00 | 86 | 1011.3 |
| 20260506164009 | 5 | 0 | 0.0 | 0.0 | 0.00 | 0.00 | 0.00 | 88 | 1011.2 |
| 20260506163511 | 5 | 0 | 0.0 | 0.0 | 0.00 | 0.00 | 0.00 | 89 | 1011.2 |
| 20260506163042 | 5 | 0 | 0.0 | 0.0 | 0.00 | 0.00 | 0.00 | 89 | 1011.2 |
| 20260506162511 | 5 | 0 | 0.0 | 0.0 | 0.00 | 0.00 | 0.00 | 90 | 1011.2 |
| 20260506162014 | 4 | 0 | 0.0 | 0.0 | 0.00 | 0.00 | 0.00 | 91 | 1011.0 |
| 20260506161528 | 4 | 0 | 0.0 | 0.0 | 0.00 | 0.00 | 0.00 | 92 | 1011.1 |
| 20260506161011 | 4 | 0 | 0.0 | 0.0 | 0.00 | 0.00 | 0.00 | 92 | 1011.1 |
| 20260506160509 | 3 | 0 | 0.0 | 0.0 | 0.00 | 0.00 | 0.00 | 93 | 1011.0 |
| 20260506160032 | 3 | 0 | 0.0 | 0.0 | 0.00 | 0.00 | 0.00 | 93 | 1011.0 |
| 20260506155512 | 3 | 0 | 0.0 | 0.0 | 0.00 | 0.00 | 0.00 | 93 | 1011.0 |
| 20260506155009 | 3 | 0 | 0.0 | 0.0 | 0.00 | 0.00 | 0.00 | 93 | 1011.0 |
| 20260506154537 | 3 | 0 | 0.0 | 0.0 | 0.00 | 0.00 | 0.00 | 93 | 1011.0 |
| 20260506154010 | 3 | 0 | 0.0 | 0.0 | 0.00 | 0.00 | 0.00 | 93 | 1010.9 |
| 20260506153509 | 2 | 0 | 0.0 | 0.0 | 0.00 | 0.00 | 0.00 | 93 | 1010.9 |
| 20260506153032 | 2 | 0 | 0.0 | 0.0 | 0.00 | 0.00 | 0.00 | 93 | 1011.0 |
| 20260506152515 | 2 | 0 | 0.0 | 0.0 | 0.00 | 0.00 | 0.00 | 93 | 1011.0 |
| 20260506152014 | 2 | 0 | 0.0 | 0.0 | 0.00 | 0.00 | 0.00 | 93 | 1010.8 |
| 20260506151538 | 2 | 0 | 0.0 | 0.0 | 0.00 | 0.00 | 0.00 | 93 | 1010.9 |
| 20260506151009 | 2 | 0 | 0.0 | 0.0 | 0.00 | 0.00 | 0.00 | 93 | 1010.9 |
| 20260506150509 | 2 | 0 | 0.0 | 0.0 | 0.00 | 0.00 | 0.00 | 93 | 1010.9 |
| 20260506150028 | 2 | 0 | 0.0 | 0.0 | 0.00 | 0.00 | 0.00 | 93 | 1010.9 |
| 20260506145512 | 2 | 0 | 0.0 | 0.0 | 0.00 | 0.00 | 0.00 | 93 | 1010.9 |
| 20260506145011 | 2 | 0 | 0.0 | 0.0 | 0.00 | 0.00 | 0.00 | 93 | 1010.8 |
| 20260506144529 | 2 | 0 | 0.0 | 0.0 | 0.00 | 0.00 | 0.00 | 92 | 1010.8 |
| 20260506144010 | 2 | 0 | 0.0 | 0.0 | 0.00 | 0.00 | 0.00 | 92 | 1010.9 |
| 20260506143510 | 2 | 0 | 0.0 | 0.0 | 0.00 | 0.00 | 0.00 | 92 | 1010.8 |
| 20260506143032 | 2 | 0 | 0.0 | 0.0 | 0.00 | 0.00 | 0.00 | 92 | 1010.8 |
| 20260506142510 | 2 | 0 | 0.0 | 0.0 | 0.00 | 0.00 | 0.00 | 93 | 1010.8 |
| 20260506142010 | 2 | 0 | 0.0 | 0.0 | 0.00 | 0.00 | 0.00 | 93 | 1010.9 |
| 20260506141526 | 2 | 0 | 0.0 | 0.0 | 0.00 | 0.00 | 0.00 | 93 | 1010.9 |
| 20260506141016 | 1 | 0 | 0.0 | 0.0 | 0.00 | 0.00 | 0.00 | 92 | 1010.8 |
| 20260506140511 | 1 | 0 | 0.0 | 0.0 | 0.00 | 0.00 | 0.00 | 91 | 1010.8 |
| 20260506140033 | 1 | 0 | 0.0 | 0.0 | 0.00 | 0.00 | 0.00 | 91 | 1010.8 |
| 20260506135514 | 2 | 0 | 0.0 | 0.0 | 0.00 | 0.00 | 0.00 | 91 | 1010.8 |
| 20260506135009 | 2 | 0 | 0.0 | 0.0 | 0.00 | 0.00 | 0.00 | 91 | 1010.8 |
| 20260506134528 | 2 | 0 | 0.0 | 0.0 | 0.00 | 0.00 | 0.00 | 90 | 1010.7 |
| 20260506134017 | 2 | 0 | 0.0 | 0.0 | 0.00 | 0.00 | 0.00 | 90 | 1010.8 |
| 20260506133508 | 2 | 0 | 0.0 | 0.0 | 0.00 | 0.00 | 0.00 | 90 | 1010.8 |
| 20260506133029 | 2 | 0 | 0.0 | 0.0 | 0.00 | 0.00 | 0.00 | 89 | 1010.7 |
| 20260506132513 | 2 | 0 | 0.0 | 0.0 | 0.00 | 0.00 | 0.00 | 89 | 1010.7 |
| 20260506132010 | 2 | 0 | 0.0 | 0.0 | 0.00 | 0.00 | 0.00 | 89 | 1010.8 |
| 20260506131535 | 3 | 0 | 0.0 | 0.0 | 0.00 | 0.00 | 0.00 | 89 | 1010.7 |
| 20260506131012 | 3 | 0 | 0.0 | 0.0 | 0.00 | 0.00 | 0.00 | 89 | 1010.7 |
| 20260506130512 | 3 | 0 | 0.0 | 0.0 | 0.00 | 0.00 | 0.00 | 88 | 1010.8 |
| 20260506130030 | 3 | 0 | 0.0 | 0.0 | 0.00 | 0.00 | 0.00 | 88 | 1010.8 |
| 20260506125510 | 3 | 0 | 0.0 | 0.0 | 0.00 | 0.00 | 0.00 | 88 | 1010.7 |
| 20260506125010 | 3 | 0 | 0.0 | 0.0 | 0.00 | 0.00 | 0.00 | 87 | 1010.6 |
| 20260506124528 | 3 | 0 | 0.0 | 0.0 | 0.00 | 0.00 | 0.00 | 85 | 1010.7 |
| 20260506124011 | 3 | 0 | 0.0 | 0.0 | 0.00 | 0.00 | 0.00 | 84 | 1010.7 |
| 20260506123510 | 3 | 0 | 0.0 | 0.0 | 0.00 | 0.00 | 0.00 | 83 | 1010.7 |
| 20260506123028 | 3 | 0 | 0.0 | 0.0 | 0.00 | 0.00 | 0.00 | 82 | 1010.7 |
| 20260506122509 | 3 | 0 | 0.0 | 0.0 | 0.00 | 0.00 | 0.00 | 80 | 1010.6 |
| 20260506122010 | 3 | 0 | 0.0 | 0.0 | 0.00 | 0.00 | 0.00 | 79 | 1010.7 |
| 20260506121527 | 3 | 0 | 0.0 | 0.0 | 0.00 | 0.00 | 0.00 | 79 | 1010.7 |
| 20260506121009 | 3 | 0 | 0.0 | 0.0 | 0.00 | 0.00 | 0.00 | 78 | 1010.6 |
| 20260506120510 | 4 | 0 | 0.0 | 0.0 | 0.00 | 0.00 | 0.00 | 78 | 1010.6 |
| 20260506120028 | 4 | 0 | 0.0 | 0.0 | 0.00 | 0.00 | 0.00 | 78 | 1010.5 |
| 20260506115510 | 4 | 0 | 0.0 | 0.0 | 0.00 | 0.00 | 0.00 | 78 | 1010.6 |
| 20260506115009 | 4 | 0 | 0.0 | 0.0 | 0.00 | 0.00 | 0.00 | 77 | 1010.6 |
| 20260506114528 | 4 | 0 | 0.0 | 0.0 | 0.00 | 0.00 | 0.00 | 76 | 1010.4 |
| 20260506114010 | 4 | 0 | 0.0 | 0.0 | 0.00 | 0.00 | 0.00 | 76 | 1010.5 |
| 20260506113509 | 4 | 0 | 0.0 | 0.0 | 0.00 | 0.00 | 0.00 | 75 | 1010.5 |
| 20260506113030 | 5 | 0 | 0.0 | 0.0 | 0.00 | 0.00 | 0.00 | 75 | 1010.5 |
| 20260506112509 | 5 | 0 | 0.0 | 1.6 | 0.00 | 0.00 | 0.00 | 74 | 1010.5 |
| 20260506112009 | 5 | 0 | 0.0 | 1.6 | 0.00 | 0.00 | 0.00 | 74 | 1010.3 |
| 20260506111530 | 5 | 263 | 0.0 | 3.2 | 0.00 | 0.00 | 0.00 | 74 | 1010.4 |
| 20260506111009 | 5 | 0 | 0.0 | 3.2 | 0.00 | 0.00 | 0.00 | 73 | 1010.2 |
| 20260506110510 | 5 | 261 | 1.6 | 3.2 | 0.00 | 0.00 | 0.00 | 73 | 1010.2 |
| 20260506110030 | 5 | 0 | 0.0 | 1.6 | 0.00 | 0.00 | 0.00 | 71 | 1010.2 |
| 20260506105510 | 5 | 253 | 0.0 | 3.2 | 0.00 | 0.00 | 0.00 | 71 | 1010.3 |
| 20260506105013 | 5 | 0 | 1.6 | 3.2 | 0.00 | 0.00 | 0.00 | 71 | 1010.2 |
| 20260506104529 | 5 | 269 | 0.0 | 3.2 | 0.00 | 0.00 | 0.00 | 71 | 1010.0 |
| 20260506104012 | 5 | 248 | 0.0 | 6.4 | 0.00 | 0.00 | 0.00 | 71 | 1010.0 |
| 20260506103511 | 5 | 277 | 0.0 | 8.0 | 0.00 | 0.00 | 0.00 | 71 | 1009.9 |
| 20260506103027 | 5 | 236 | 1.6 | 8.0 | 0.00 | 0.00 | 0.00 | 70 | 1009.8 |
| 20260506102510 | 5 | 217 | 3.2 | 8.0 | 0.00 | 0.00 | 0.00 | 69 | 1009.8 |
| 20260506102008 | 5 | 0 | 0.0 | 1.6 | 0.00 | 0.00 | 0.00 | 68 | 1009.7 |
| 20260506101528 | 5 | 340 | 0.0 | 1.6 | 0.00 | 0.00 | 0.00 | 70 | 1009.5 |
| 20260506101010 | 5 | 0 | 0.0 | 0.0 | 0.00 | 0.00 | 0.00 | 69 | 1009.5 |
| 20260506100511 | 5 | 0 | 0.0 | 0.0 | 0.00 | 0.00 | 0.00 | 69 | 1009.4 |
| 20260506100031 | 5 | 0 | 0.0 | 1.6 | 0.00 | 0.00 | 0.00 | 68 | 1009.2 |
| 20260506095511 | 5 | 0 | 0.0 | 1.6 | 0.00 | 0.00 | 0.00 | 70 | 1009.2 |
| 20260506095011 | 5 | 0 | 0.0 | 1.6 | 0.00 | 0.00 | 0.00 | 68 | 1009.2 |
| 20260506094528 | 5 | 0 | 0.0 | 1.6 | 0.00 | 0.00 | 0.00 | 68 | 1009.1 |
| 20260506094010 | 5 | 0 | 0.0 | 1.6 | 0.00 | 0.00 | 0.00 | 68 | 1009.2 |
| 20260506093512 | 5 | 0 | 0.0 | 1.6 | 0.00 | 0.00 | 0.00 | 69 | 1009.2 |
| 20260506093029 | 5 | 0 | 0.0 | 1.6 | 0.00 | 0.00 | 0.00 | 69 | 1009.1 |
| 20260506092510 | 5 | 0 | 0.0 | 0.0 | 0.00 | 0.00 | 0.00 | 70 | 1009.1 |
| 20260506092011 | 5 | 0 | 0.0 | 0.0 | 0.00 | 0.00 | 0.00 | 70 | 1009.1 |
| 20260506091530 | 5 | 0 | 0.0 | 0.0 | 0.00 | 0.00 | 0.00 | 69 | 1008.9 |
| 20260506091015 | 5 | 0 | 0.0 | 1.6 | 0.00 | 0.00 | 0.00 | 70 | 1008.9 |
| 20260506090509 | 5 | 0 | 0.0 | 1.6 | 0.00 | 0.00 | 0.00 | 70 | 1008.8 |
| 20260506090029 | 5 | 0 | 0.0 | 0.0 | 0.00 | 0.00 | 0.00 | 70 | 1008.9 |
| 20260506085510 | 5 | 0 | 0.0 | 1.6 | 0.00 | 0.00 | 0.00 | 70 | 1008.9 |
| 20260506085009 | 5 | 0 | 0.0 | 1.6 | 0.00 | 0.00 | 0.00 | 70 | 1008.8 |
| 20260506084537 | 5 | 0 | 0.0 | 0.0 | 0.00 | 0.00 | 0.00 | 71 | 1008.8 |
| 20260506084010 | 5 | 0 | 0.0 | 0.0 | 0.00 | 0.00 | 0.00 | 71 | 1008.8 |
| 20260506083510 | 4 | 0 | 0.0 | 0.0 | 0.00 | 0.00 | 0.00 | 72 | 1008.8 |
| 20260506083032 | 4 | 0 | 0.0 | 0.0 | 0.00 | 0.00 | 0.00 | 73 | 1008.6 |
| 20260506082509 | 4 | 0 | 0.0 | 0.0 | 0.00 | 0.00 | 0.00 | 74 | 1008.6 |
| 20260506082011 | 4 | 0 | 0.0 | 0.0 | 0.00 | 0.00 | 0.00 | 75 | 1008.7 |
| 20260506081530 | 4 | 0 | 0.0 | 0.0 | 0.00 | 0.00 | 0.00 | 75 | 1008.7 |
| 20260506081012 | 4 | 0 | 0.0 | 0.0 | 0.00 | 0.00 | 0.00 | 77 | 1008.6 |
| 20260506080509 | 4 | 0 | 0.0 | 0.0 | 0.00 | 0.00 | 0.00 | 79 | 1008.6 |
| 20260506073514 | 5 | 0 | 0.0 | 0.0 | 0.00 | 0.00 | 0.00 | 75 | 1008.5 |
| 20260506073028 | 5 | 0 | 0.0 | 0.0 | 0.00 | 0.00 | 0.00 | 75 | 1008.5 |
| 20260506072510 | 5 | 0 | 0.0 | 0.0 | 0.00 | 0.00 | 0.00 | 75 | 1008.5 |
| 20260506072011 | 5 | 0 | 0.0 | 0.0 | 0.00 | 0.00 | 0.00 | 74 | 1008.4 |
| 20260506071531 | 5 | 0 | 0.0 | 1.6 | 0.00 | 0.00 | 0.00 | 75 | 1008.3 |
| 20260506071009 | 5 | 335 | 0.0 | 1.6 | 0.00 | 0.00 | 0.00 | 74 | 1008.3 |
| 20260506070510 | 5 | 0 | 0.0 | 1.6 | 0.00 | 0.00 | 0.00 | 73 | 1008.1 |
| 20260506062513 | 7 | 0 | 0.0 | 0.0 | 0.00 | 0.00 | 0.00 | 63 | 1007.8 |
| 20260506062013 | 7 | 0 | 0.0 | 0.0 | 0.00 | 0.00 | 0.00 | 63 | 1007.7 |
| 20260506061531 | 7 | 0 | 0.0 | 1.6 | 0.00 | 0.00 | 0.00 | 62 | 1007.7 |
| 20260506061010 | 7 | 0 | 0.0 | 1.6 | 0.00 | 0.00 | 0.00 | 61 | 1007.6 |
| 20260506060509 | 7 | 0 | 0.0 | 1.6 | 0.00 | 0.00 | 0.00 | 61 | 1007.5 |